createdAt,value
2018-09-17T00:01:36.408Z,0.00
2018-09-17T00:02:36.375Z,0.00
2018-09-17T00:04:29.782Z,0.00
2018-09-17T00:05:29.637Z,0.00
2018-09-17T00:07:22.979Z,0.00
2018-09-17T00:08:22.909Z,0.00
2018-09-17T00:10:16.247Z,0.00
2018-09-17T00:11:16.187Z,0.00
2018-09-17T00:13:30.508Z,0.00
2018-09-17T00:15:02.807Z,0.00
2018-09-17T00:16:02.782Z,0.00
2018-09-17T00:17:56.124Z,0.00
2018-09-17T00:18:56.054Z,0.00
2018-09-17T00:20:48.868Z,0.00
2018-09-17T00:21:48.832Z,0.00
2018-09-17T00:23:42.182Z,0.00
2018-09-17T00:24:42.107Z,0.00
2018-09-17T00:26:35.427Z,0.00
2018-09-17T00:27:35.385Z,0.00
2018-09-17T00:29:28.694Z,0.00
2018-09-17T00:30:28.669Z,0.00
2018-09-17T00:32:21.984Z,0.00
2018-09-17T00:33:21.952Z,0.00
2018-09-17T00:35:16.267Z,0.00
2018-09-17T00:36:16.213Z,0.00
2018-09-17T00:38:09.035Z,0.00
2018-09-17T00:39:08.993Z,0.00
2018-09-17T00:41:02.292Z,0.00
2018-09-17T00:42:02.274Z,0.00
2018-09-17T00:43:55.590Z,0.00
2018-09-17T00:44:55.537Z,0.00
2018-09-17T00:46:48.827Z,0.00
2018-09-17T00:47:48.791Z,0.00
2018-09-17T00:49:41.619Z,0.00
2018-09-17T00:50:41.576Z,0.00
2018-09-17T00:52:34.412Z,0.00
2018-09-17T00:53:34.374Z,0.00
2018-09-17T00:55:27.653Z,0.00
2018-09-17T00:56:27.623Z,0.00
2018-09-17T00:58:20.454Z,0.00
2018-09-17T00:59:20.400Z,0.00
2018-09-17T01:01:13.205Z,0.00
2018-09-17T01:02:13.149Z,0.00
2018-09-17T01:04:05.979Z,0.00
2018-09-17T01:05:05.940Z,0.00
2018-09-17T01:06:59.245Z,0.00
2018-09-17T01:07:59.209Z,0.00
2018-09-17T01:09:52.545Z,0.00
2018-09-17T01:10:52.478Z,0.00
2018-09-17T01:12:45.796Z,0.00
2018-09-17T01:13:45.778Z,0.00
2018-09-17T11:57:00.110Z,19168.00
2018-09-17T11:58:00.070Z,18752.00
2018-09-17T11:59:54.409Z,18208.00
2018-09-17T12:00:54.394Z,16576.00
2018-09-17T12:02:47.756Z,17952.00
2018-09-17T12:03:47.716Z,17824.00
2018-09-17T12:05:41.056Z,16800.00
2018-09-17T12:06:41.031Z,16128.00
2018-09-17T12:08:34.399Z,12364.00
2018-09-17T12:09:34.357Z,12936.00
2018-09-17T12:11:27.717Z,14312.00
2018-09-17T12:12:27.682Z,15404.00
2018-09-17T12:14:21.020Z,16544.00
2018-09-17T12:15:20.990Z,16160.00
2018-09-17T12:17:14.452Z,14812.00
2018-09-17T12:18:14.313Z,14048.00
2018-09-17T12:20:07.647Z,13232.00
2018-09-17T12:21:07.633Z,11372.00
2018-09-17T12:23:01.004Z,11124.00
2018-09-17T12:24:00.986Z,12060.00
2018-09-17T12:25:54.283Z,13176.00
2018-09-17T12:26:54.267Z,12120.00
2018-09-17T12:28:47.598Z,11168.00
2018-09-17T12:29:47.568Z,11516.00
2018-09-17T12:31:40.913Z,13872.00
2018-09-17T12:32:40.883Z,12780.00
2018-09-17T12:34:34.855Z,9704.00
2018-09-17T12:35:34.206Z,9568.00
2018-09-17T12:37:28.177Z,9092.00
2018-09-17T12:38:27.512Z,9156.00
2018-09-17T12:40:20.841Z,9376.00
2018-09-17T12:41:20.808Z,9400.00
2018-09-17T12:43:14.226Z,10916.00
2018-09-17T12:44:14.127Z,10052.00
2018-09-17T12:46:07.455Z,10112.00
2018-09-17T12:47:07.433Z,10240.00
2018-09-17T12:49:00.785Z,9952.00
2018-09-17T12:50:00.745Z,9576.00
2018-09-17T12:51:54.080Z,8540.00
2018-09-17T12:52:54.054Z,8256.00
2018-09-17T12:54:47.664Z,8800.00
2018-09-17T12:55:47.394Z,8700.00
2018-09-17T12:57:40.700Z,8416.00
2018-09-17T12:58:40.655Z,8480.00
2018-09-17T13:00:33.995Z,8992.00
2018-09-17T13:01:33.966Z,8508.00
2018-09-17T13:03:27.309Z,7988.00
2018-09-17T13:04:27.269Z,7724.00
2018-09-17T13:06:20.601Z,7716.00
2018-09-17T13:07:20.700Z,7656.00
2018-09-17T13:09:13.960Z,7724.00
2018-09-17T13:10:13.880Z,7560.00
2018-09-17T13:12:07.213Z,7400.00
2018-09-17T13:13:07.186Z,7332.00
2018-09-17T13:15:00.536Z,7208.00
2018-09-17T13:16:00.498Z,7104.00
2018-09-17T13:17:53.819Z,7084.00
2018-09-17T13:18:53.794Z,7072.00
2018-09-17T13:20:47.745Z,6788.00
2018-09-17T13:21:47.115Z,6668.00
2018-09-17T13:23:41.461Z,6876.00
2018-09-17T13:24:41.395Z,6772.00
2018-09-17T13:26:34.752Z,7396.00
2018-09-17T13:27:34.734Z,7736.00
2018-09-17T13:29:28.086Z,7528.00
2018-09-17T13:30:28.031Z,7072.00
2018-09-17T13:32:21.351Z,6536.00
2018-09-17T13:33:21.361Z,6496.00
2018-09-17T13:35:14.686Z,6628.00
2018-09-17T13:36:14.640Z,6736.00
2018-09-17T13:38:07.957Z,7656.00
2018-09-17T13:39:07.952Z,7884.00
2018-09-17T13:41:01.266Z,7316.00
2018-09-17T13:42:01.236Z,7692.00
2018-09-17T13:43:54.613Z,7436.00
2018-09-17T13:44:54.573Z,6748.00
2018-09-17T13:46:47.880Z,7268.00
2018-09-17T13:47:47.878Z,7608.00
2018-09-17T13:49:41.223Z,8108.00
2018-09-17T13:50:41.178Z,8700.00
2018-09-17T13:52:34.471Z,8488.00
2018-09-17T13:53:34.606Z,7844.00
2018-09-17T13:55:27.795Z,7308.00
2018-09-17T13:56:27.775Z,7024.00
2018-09-17T13:58:21.161Z,5776.00
2018-09-17T13:59:21.140Z,5764.00
2018-09-17T14:01:14.485Z,7320.00
2018-09-17T14:02:14.462Z,7732.00
2018-09-17T14:04:08.669Z,7528.00
2018-09-17T14:05:07.743Z,7520.00
2018-09-17T14:07:01.077Z,7472.00
2018-09-17T14:08:01.058Z,7380.00
2018-09-17T14:09:54.459Z,7400.00
2018-09-17T14:10:54.923Z,7392.00
2018-09-17T14:12:47.771Z,7240.00
2018-09-17T14:13:47.763Z,7232.00
2018-09-17T14:15:41.118Z,7136.00
2018-09-17T14:16:41.131Z,7140.00
2018-09-17T14:18:34.441Z,7096.00
2018-09-17T14:19:34.412Z,7024.00
2018-09-17T14:21:28.791Z,7004.00
2018-09-17T14:22:28.782Z,6972.00
2018-09-17T14:24:22.167Z,6960.00
2018-09-17T14:25:22.134Z,6920.00
2018-09-17T14:27:15.676Z,6800.00
2018-09-17T14:28:15.533Z,6708.00
2018-09-17T14:30:08.874Z,6584.00
2018-09-17T14:31:08.841Z,6552.00
2018-09-17T14:33:02.273Z,6508.00
2018-09-17T14:34:02.247Z,6404.00
2018-09-17T14:35:55.510Z,6196.00
2018-09-17T14:36:55.462Z,6292.00
2018-09-17T14:38:48.788Z,6336.00
2018-09-17T14:39:48.758Z,6308.00
2018-09-17T14:41:42.125Z,6296.00
2018-09-17T14:42:42.082Z,6280.00
2018-09-17T14:44:35.409Z,6336.00
2018-09-17T14:45:35.380Z,6348.00
2018-09-17T14:47:28.737Z,6232.00
2018-09-17T14:48:28.705Z,6192.00
2018-09-17T14:50:22.042Z,6188.00
2018-09-17T14:51:22.013Z,6112.00
2018-09-17T14:53:15.368Z,6000.00
2018-09-17T14:54:15.349Z,5956.00
2018-09-17T14:56:09.666Z,5780.00
2018-09-17T14:57:09.636Z,5656.00
2018-09-17T14:59:02.988Z,5500.00
2018-09-17T15:00:02.955Z,5472.00
2018-09-17T15:01:56.306Z,5336.00
2018-09-17T15:02:56.260Z,5200.00
2018-09-17T15:04:49.600Z,5020.00
2018-09-17T15:05:49.654Z,4888.00
2018-09-17T15:07:42.947Z,4716.00
2018-09-17T15:08:42.885Z,4640.00
2018-09-17T15:10:36.214Z,4572.00
2018-09-17T15:11:36.254Z,4496.00
2018-09-17T15:13:29.588Z,4344.00
2018-09-17T15:14:29.690Z,4296.00
2018-09-17T15:16:22.992Z,4088.00
2018-09-17T15:17:22.835Z,3944.00
2018-09-17T15:19:16.196Z,3664.00
2018-09-17T15:20:16.168Z,3536.00
2018-09-17T15:22:09.485Z,3380.00
2018-09-17T15:23:09.456Z,3328.00
2018-09-17T15:25:02.806Z,3272.00
2018-09-17T15:26:02.810Z,3156.00
2018-09-17T15:27:56.104Z,3072.00
2018-09-17T15:28:56.071Z,3180.00
2018-09-17T15:30:49.440Z,3424.00
2018-09-17T15:31:49.376Z,3384.00
2018-09-17T15:33:43.726Z,3380.00
2018-09-17T15:34:43.714Z,3516.00
2018-09-17T15:36:37.032Z,3580.00
2018-09-17T15:37:36.998Z,3604.00
2018-09-17T15:39:30.356Z,3540.00
2018-09-17T15:40:30.461Z,3516.00
2018-09-17T15:42:23.687Z,3460.00
2018-09-17T15:43:23.633Z,3436.00
2018-09-17T15:45:16.967Z,3316.00
2018-09-17T15:46:16.990Z,3280.00
2018-09-17T15:48:10.266Z,3268.00
2018-09-17T15:49:10.221Z,3248.00
2018-09-17T15:51:03.586Z,3272.00
2018-09-17T15:52:03.659Z,3320.00
2018-09-17T15:53:56.886Z,3388.00
2018-09-17T15:54:56.858Z,3336.00
2018-09-17T15:56:50.182Z,3312.00
2018-09-17T15:57:50.197Z,3260.00
2018-09-17T15:59:43.500Z,3108.00
2018-09-17T16:00:43.471Z,3032.00
2018-09-17T16:02:36.907Z,2976.00
2018-09-17T16:03:36.778Z,2936.00
2018-09-17T16:05:30.122Z,2784.00
2018-09-17T16:06:30.062Z,2692.00
2018-09-17T16:08:23.384Z,2664.00
2018-09-17T16:09:23.358Z,2656.00
2018-09-17T16:11:16.692Z,2612.00
2018-09-17T16:12:16.666Z,2588.00
2018-09-17T16:14:10.064Z,2528.00
2018-09-17T16:15:09.978Z,2496.00
2018-09-17T16:17:03.283Z,2512.00
2018-09-17T16:18:03.268Z,2544.00
2018-09-17T16:19:56.655Z,2588.00
2018-09-17T16:20:56.589Z,2588.00
2018-09-17T16:22:49.900Z,2532.00
2018-09-17T16:23:49.893Z,2480.00
2018-09-17T16:25:43.208Z,2368.00
2018-09-17T16:26:43.173Z,2272.00
2018-09-17T16:28:36.492Z,2112.00
2018-09-17T16:29:36.463Z,2060.00
2018-09-17T16:31:29.817Z,2044.00
2018-09-17T16:32:29.764Z,2096.00
2018-09-17T16:34:23.085Z,2208.00
2018-09-17T16:35:23.069Z,2252.00
2018-09-17T16:37:16.413Z,2280.00
2018-09-17T16:38:16.369Z,2244.00
2018-09-17T16:40:09.713Z,2128.00
2018-09-17T16:41:09.656Z,2108.00
2018-09-17T16:43:02.991Z,1984.00
2018-09-17T16:44:02.955Z,1864.00
2018-09-17T16:45:56.505Z,1680.00
2018-09-17T16:46:56.287Z,1628.00
2018-09-17T16:48:49.688Z,1476.00
2018-09-17T16:49:49.667Z,1408.00
2018-09-17T16:51:42.989Z,1268.00
2018-09-17T16:52:42.966Z,1204.00
2018-09-17T16:54:36.267Z,1116.00
2018-09-17T16:55:36.235Z,1068.00
2018-09-17T16:57:29.573Z,984.00
2018-09-17T16:58:29.537Z,940.00
2018-09-17T17:00:22.855Z,884.00
2018-09-17T17:01:22.830Z,860.00
2018-09-17T17:03:16.140Z,816.00
2018-09-17T17:04:16.104Z,792.00
2018-09-17T17:06:09.444Z,732.00
2018-09-17T17:07:09.403Z,712.00
2018-09-17T17:09:02.725Z,672.00
2018-09-17T17:10:02.721Z,648.00
2018-09-17T17:11:56.091Z,612.00
2018-09-17T17:12:56.071Z,592.00
2018-09-17T17:14:49.306Z,544.00
2018-09-17T17:15:49.296Z,512.00
2018-09-17T17:17:42.616Z,460.00
2018-09-17T17:18:42.601Z,432.00
2018-09-17T17:20:35.907Z,392.00
2018-09-17T17:21:35.868Z,372.00
2018-09-17T17:23:29.202Z,336.00
2018-09-17T17:24:29.161Z,320.00
2018-09-17T17:26:21.997Z,288.00
2018-09-17T17:27:21.962Z,268.00
2018-09-17T17:29:15.302Z,236.00
2018-09-17T17:30:15.251Z,216.00
2018-09-17T17:32:08.590Z,188.00
2018-09-17T17:33:08.545Z,172.00
2018-09-17T17:35:01.867Z,144.00
2018-09-17T17:36:01.834Z,132.00
2018-09-17T17:37:55.185Z,108.00
2018-09-17T17:38:55.139Z,96.00
2018-09-17T17:40:48.630Z,80.00
2018-09-17T17:41:48.426Z,72.00
2018-09-17T17:43:41.763Z,60.00
2018-09-17T17:44:41.721Z,56.00
2018-09-17T17:46:35.119Z,44.00
2018-09-17T17:47:35.012Z,40.00
2018-09-17T17:49:28.346Z,36.00
2018-09-17T17:50:28.287Z,36.00
2018-09-17T17:52:21.719Z,32.00
2018-09-17T17:53:21.589Z,28.00
2018-09-17T17:55:14.922Z,20.00
2018-09-17T17:56:14.882Z,16.00
2018-09-17T17:58:08.229Z,12.00
2018-09-17T17:59:08.151Z,12.00
2018-09-17T18:01:01.632Z,4.00
2018-09-17T18:02:01.449Z,4.00
2018-09-17T18:03:54.833Z,4.00
2018-09-17T18:04:54.739Z,4.00
2018-09-17T18:06:48.184Z,0.00
2018-09-17T18:07:48.020Z,4.00
2018-09-17T18:09:41.358Z,0.00
2018-09-17T18:10:41.314Z,4.00
2018-09-17T18:12:34.624Z,0.00
2018-09-17T18:13:34.591Z,0.00
2018-09-17T18:15:27.925Z,0.00
2018-09-17T18:16:27.884Z,0.00
2018-09-17T18:18:21.224Z,0.00
2018-09-17T18:19:21.185Z,0.00
2018-09-17T18:21:14.534Z,0.00
2018-09-17T18:22:14.460Z,0.00
2018-09-17T18:24:07.793Z,0.00
2018-09-17T18:25:07.755Z,0.00
2018-09-17T18:27:02.151Z,0.00
2018-09-17T18:28:02.040Z,0.00
2018-09-17T18:29:55.360Z,0.00
2018-09-17T18:30:55.319Z,0.00
2018-09-17T18:32:48.662Z,0.00
2018-09-17T18:33:48.611Z,0.00
2018-09-17T18:35:41.933Z,0.00
2018-09-17T18:36:41.899Z,0.00
2018-09-17T18:38:35.221Z,0.00
2018-09-17T18:39:35.336Z,0.00
2018-09-17T18:41:28.523Z,0.00
2018-09-17T18:42:28.486Z,0.00
2018-09-17T18:44:21.794Z,0.00
2018-09-17T18:45:21.838Z,0.00
2018-09-17T18:47:15.101Z,0.00
2018-09-17T18:48:15.102Z,0.00
2018-09-17T18:50:07.904Z,0.00
2018-09-17T18:51:07.890Z,0.00
2018-09-17T18:53:01.154Z,0.00
2018-09-17T18:54:01.240Z,0.00
2018-09-17T18:55:54.466Z,0.00
2018-09-17T18:56:54.423Z,0.00
2018-09-17T18:58:47.725Z,0.00
2018-09-17T18:59:47.752Z,0.00
2018-09-17T19:01:41.034Z,0.00
2018-09-17T19:02:41.000Z,0.00
2018-09-17T19:04:34.312Z,0.00
2018-09-17T19:05:34.275Z,0.00
2018-09-17T19:07:27.585Z,0.00
2018-09-17T19:08:27.541Z,0.00
2018-09-17T19:10:20.871Z,0.00
2018-09-17T19:11:20.836Z,0.00
2018-09-17T19:13:14.134Z,0.00
2018-09-17T19:14:14.112Z,0.00
2018-09-17T19:16:07.440Z,0.00
2018-09-17T19:17:07.406Z,0.00
2018-09-17T19:19:00.747Z,0.00
2018-09-17T19:20:00.771Z,0.00
2018-09-17T19:21:54.200Z,0.00
2018-09-17T19:22:54.089Z,0.00
2018-09-17T19:24:47.308Z,0.00
2018-09-17T19:25:47.320Z,0.00
2018-09-17T19:27:40.637Z,0.00
2018-09-17T19:28:40.560Z,0.00
2018-09-17T19:30:33.364Z,0.00
2018-09-17T19:31:33.331Z,0.00
2018-09-17T19:33:26.689Z,0.00
2018-09-17T19:34:26.643Z,0.00
2018-09-17T19:36:20.111Z,0.00
2018-09-17T19:37:19.923Z,0.00
2018-09-17T19:39:13.223Z,0.00
2018-09-17T19:40:13.202Z,0.00
2018-09-17T19:42:06.733Z,0.00
2018-09-17T19:43:06.473Z,0.00
2018-09-17T19:44:59.801Z,0.00
2018-09-17T19:45:59.817Z,0.00
2018-09-17T19:47:53.116Z,0.00
2018-09-17T19:48:53.032Z,0.00
2018-09-17T19:50:46.377Z,0.00
2018-09-17T19:51:46.333Z,0.00
2018-09-17T19:53:39.688Z,0.00
2018-09-17T19:54:39.597Z,0.00
2018-09-17T19:56:32.923Z,0.00
2018-09-17T19:57:32.888Z,0.00
2018-09-17T19:59:26.191Z,0.00
2018-09-17T20:00:26.175Z,0.00
2018-09-17T20:02:19.514Z,0.00
2018-09-17T20:03:19.444Z,0.00
2018-09-17T20:05:12.259Z,0.00
2018-09-17T20:06:12.256Z,0.00
2018-09-17T20:08:05.538Z,0.00
2018-09-17T20:09:05.490Z,0.00
2018-09-17T20:10:58.812Z,0.00
2018-09-17T20:11:58.773Z,0.00
2018-09-17T20:13:52.110Z,0.00
2018-09-17T20:14:52.059Z,0.00
2018-09-17T20:16:45.385Z,0.00
2018-09-17T20:17:45.340Z,0.00
2018-09-17T20:19:38.662Z,0.00
2018-09-17T20:20:38.620Z,0.00
2018-09-17T20:22:31.957Z,0.00
2018-09-17T20:23:31.905Z,0.00
2018-09-17T20:25:25.214Z,0.00
2018-09-17T20:26:25.186Z,0.00
2018-09-17T20:28:18.515Z,0.00
2018-09-17T20:29:18.455Z,0.00
2018-09-17T20:31:11.851Z,0.00
2018-09-17T20:32:11.764Z,0.00
2018-09-17T20:34:05.097Z,0.00
2018-09-17T20:35:05.041Z,0.00
2018-09-17T20:36:58.354Z,0.00
2018-09-17T20:37:58.328Z,0.00
2018-09-17T20:39:51.639Z,0.00
2018-09-17T20:40:51.596Z,0.00
2018-09-17T20:42:44.899Z,0.00
2018-09-17T20:43:44.882Z,0.00
2018-09-17T20:45:38.205Z,0.00
2018-09-17T20:46:38.160Z,0.00
2018-09-17T20:48:31.489Z,0.00
2018-09-17T20:49:31.531Z,0.00
2018-09-17T20:51:24.779Z,0.00
2018-09-17T20:52:24.730Z,0.00
2018-09-17T20:54:18.054Z,0.00
2018-09-17T20:55:18.140Z,0.00
2018-09-17T20:57:11.310Z,0.00
2018-09-17T20:58:11.276Z,0.00
2018-09-17T21:00:04.601Z,0.00
2018-09-17T21:01:04.639Z,0.00
2018-09-17T21:02:57.887Z,0.00
2018-09-17T21:03:57.855Z,0.00
2018-09-17T21:05:51.169Z,0.00
2018-09-17T21:06:51.173Z,0.00
2018-09-17T21:08:44.421Z,0.00
2018-09-17T21:09:44.396Z,0.00
2018-09-17T21:11:37.720Z,0.00
2018-09-17T21:12:37.709Z,0.00
2018-09-17T21:14:30.987Z,0.00
2018-09-17T21:15:30.945Z,0.00
2018-09-17T21:17:24.247Z,0.00
2018-09-17T21:18:24.228Z,0.00
2018-09-17T21:20:18.544Z,0.00
2018-09-17T21:21:18.492Z,0.00
2018-09-17T21:23:11.815Z,0.00
2018-09-17T21:24:11.781Z,0.00
2018-09-17T21:26:05.103Z,0.00
2018-09-17T21:27:05.051Z,0.00
2018-09-17T21:28:58.392Z,0.00
2018-09-17T21:29:58.332Z,0.00
2018-09-17T21:31:51.662Z,0.00
2018-09-17T21:32:51.611Z,0.00
2018-09-17T21:34:44.915Z,0.00
2018-09-17T21:35:44.882Z,0.00
2018-09-17T21:37:38.220Z,0.00
2018-09-17T21:38:38.182Z,0.00
2018-09-17T21:40:31.488Z,0.00
2018-09-17T21:41:31.448Z,0.00
2018-09-17T21:43:24.330Z,0.00
2018-09-17T21:44:24.234Z,0.00
2018-09-17T21:46:17.548Z,0.00
2018-09-17T21:47:17.495Z,0.00
2018-09-17T21:49:10.808Z,0.00
2018-09-17T21:50:10.782Z,0.00
2018-09-17T21:52:04.088Z,0.00
2018-09-17T21:53:04.053Z,0.00
2018-09-17T21:54:56.873Z,0.00
2018-09-17T21:55:56.836Z,0.00
2018-09-17T21:57:50.156Z,0.00
2018-09-17T21:58:50.107Z,0.00
2018-09-17T22:00:43.423Z,0.00
2018-09-17T22:01:43.383Z,0.00
2018-09-17T22:03:36.211Z,0.00
2018-09-17T22:04:36.161Z,0.00
2018-09-17T22:06:28.998Z,0.00
2018-09-17T22:07:28.942Z,0.00
2018-09-17T22:09:21.743Z,0.00
2018-09-17T22:10:21.722Z,0.00
2018-09-17T22:12:15.052Z,0.00
2018-09-17T22:13:15.010Z,0.00
2018-09-17T22:15:07.808Z,0.00
2018-09-17T22:16:07.783Z,0.00
2018-09-17T22:18:01.109Z,0.00
2018-09-17T22:19:01.072Z,0.00
2018-09-17T22:20:54.367Z,0.00
2018-09-17T22:21:54.340Z,0.00
2018-09-17T22:23:47.659Z,0.00
2018-09-17T22:24:47.611Z,0.00
2018-09-17T22:26:40.938Z,0.00
2018-09-17T22:27:40.884Z,0.00
2018-09-17T22:29:34.194Z,0.00
2018-09-17T22:30:34.150Z,0.00
2018-09-17T22:32:27.476Z,0.00
2018-09-17T22:33:27.433Z,0.00
2018-09-17T22:35:20.273Z,0.00
2018-09-17T22:36:20.263Z,0.00
2018-09-17T22:38:13.044Z,0.00
2018-09-17T22:39:13.016Z,0.00
2018-09-17T22:41:05.804Z,0.00
2018-09-17T22:42:05.822Z,0.00
2018-09-17T22:43:58.598Z,0.00
2018-09-17T22:44:58.550Z,0.00
2018-09-17T22:46:51.855Z,0.00
2018-09-17T22:47:51.821Z,0.00
2018-09-17T22:49:45.153Z,0.00
2018-09-17T22:50:45.100Z,0.00
2018-09-17T22:52:38.405Z,0.00
2018-09-17T22:53:38.370Z,0.00
2018-09-17T22:55:31.669Z,0.00
2018-09-17T22:56:31.639Z,0.00
2018-09-17T22:58:24.966Z,0.00
2018-09-17T22:59:24.923Z,0.00
2018-09-17T23:01:17.730Z,0.00
2018-09-17T23:02:17.691Z,0.00
2018-09-17T23:04:11.034Z,0.00
2018-09-17T23:05:10.969Z,0.00
2018-09-17T23:07:04.277Z,0.00
2018-09-17T23:08:04.239Z,0.00
2018-09-17T23:09:57.564Z,0.00
2018-09-17T23:10:57.514Z,0.00
2018-09-17T23:12:50.825Z,0.00
2018-09-17T23:13:50.790Z,0.00
2018-09-17T23:15:44.107Z,0.00
2018-09-17T23:16:44.051Z,0.00
2018-09-17T23:18:37.411Z,0.00
2018-09-17T23:19:37.331Z,0.00
2018-09-17T23:21:30.146Z,0.00
2018-09-17T23:22:30.111Z,0.00
2018-09-17T23:24:23.427Z,0.00
2018-09-17T23:25:23.383Z,0.00
2018-09-17T23:27:16.688Z,0.00
2018-09-17T23:28:16.647Z,0.00
2018-09-17T23:30:10.060Z,0.00
2018-09-17T23:31:10.013Z,0.00
2018-09-17T23:33:03.317Z,0.00
2018-09-17T23:34:03.278Z,0.00
2018-09-17T23:35:56.645Z,0.00
2018-09-17T23:36:56.549Z,0.00
2018-09-17T23:38:49.868Z,0.00
2018-09-17T23:39:49.818Z,0.00
2018-09-17T23:41:43.148Z,0.00
2018-09-17T23:42:43.098Z,0.00
2018-09-17T23:44:36.416Z,0.00
2018-09-17T23:45:36.362Z,0.00
2018-09-17T23:47:29.676Z,0.00
2018-09-17T23:48:29.639Z,0.00
2018-09-17T23:50:22.961Z,0.00
2018-09-17T23:51:22.903Z,0.00
2018-09-17T23:53:16.221Z,0.00
2018-09-17T23:54:16.183Z,0.00
2018-09-17T23:56:09.497Z,0.00
2018-09-17T23:57:09.457Z,0.00
2018-09-17T23:59:02.776Z,0.00
